createdAt,value
2018-08-28T00:01:04.078Z,99.90
2018-08-28T00:03:33.778Z,99.90
2018-08-28T00:06:18.407Z,99.90
2018-08-28T00:08:59.214Z,99.90
2018-08-28T00:11:28.442Z,99.90
2018-08-28T00:14:08.601Z,99.90
2018-08-28T00:16:49.490Z,99.90
2018-08-28T00:19:30.185Z,99.90
2018-08-28T00:22:11.220Z,99.90
2018-08-28T00:24:51.816Z,99.90
2018-08-28T00:27:19.995Z,99.90
2018-08-28T00:29:48.176Z,99.90
2018-08-28T00:32:28.381Z,99.90
2018-08-28T00:34:56.630Z,99.90
2018-08-28T00:37:24.826Z,99.90
2018-08-28T00:39:53.061Z,99.90
2018-08-28T00:42:33.790Z,99.90
2018-08-28T00:45:14.547Z,99.90
2018-08-28T00:47:55.549Z,99.90
2018-08-28T00:50:24.351Z,99.90
2018-08-28T00:52:52.600Z,99.90
2018-08-28T00:55:20.881Z,99.90
2018-08-28T00:58:01.912Z,99.90
2018-08-28T01:00:42.669Z,99.90
2018-08-28T01:03:23.361Z,99.90
2018-08-28T01:06:04.286Z,99.90
2018-08-28T01:08:45.041Z,99.90
2018-08-28T01:11:25.777Z,99.90
2018-08-28T01:13:53.965Z,99.90
2018-08-28T01:16:34.401Z,99.90
2018-08-28T01:19:15.362Z,99.90
2018-08-28T01:21:43.576Z,99.90
2018-08-28T01:24:11.850Z,99.90
2018-08-28T01:26:52.528Z,99.90
2018-08-28T01:29:20.786Z,99.90
2018-08-28T01:32:01.214Z,99.90
2018-08-28T01:34:42.017Z,99.90
2018-08-28T01:37:22.872Z,99.90
2018-08-28T01:40:03.620Z,99.90
2018-08-28T01:42:44.417Z,99.90
2018-08-28T01:45:25.067Z,99.90
2018-08-28T01:48:05.624Z,99.90
2018-08-28T01:50:46.458Z,99.90
2018-08-28T01:53:27.338Z,99.90
2018-08-28T01:56:08.290Z,99.90
2018-08-28T01:58:36.570Z,99.90
2018-08-28T02:01:17.652Z,99.90
2018-08-28T02:03:58.169Z,99.90
2018-08-28T02:06:26.417Z,99.90
2018-08-28T02:09:06.883Z,99.90
2018-08-28T02:11:47.648Z,99.90
2018-08-28T02:14:16.617Z,99.90
2018-08-28T02:16:45.015Z,99.90
2018-08-28T02:19:13.249Z,99.90
2018-08-28T02:21:41.693Z,99.90
2018-08-28T02:24:21.938Z,99.90
2018-08-28T02:26:50.233Z,99.90
2018-08-28T02:29:18.478Z,99.90
2018-08-28T02:31:59.402Z,99.90
2018-08-28T02:34:40.426Z,99.90
2018-08-28T02:37:21.258Z,99.90
2018-08-28T02:40:02.049Z,99.90
2018-08-28T02:42:43.094Z,99.90
2018-08-28T02:45:23.755Z,99.90
2018-08-28T02:48:04.567Z,99.90
2018-08-28T02:50:45.056Z,99.90
2018-08-28T02:53:25.834Z,99.90
2018-08-28T02:56:06.683Z,99.90
2018-08-28T02:58:47.507Z,99.90
2018-08-28T03:01:28.308Z,99.90
2018-08-28T03:04:00.133Z,99.90
2018-08-28T03:06:28.473Z,99.90
2018-08-28T03:09:09.380Z,99.90
2018-08-28T03:11:37.689Z,99.90
2018-08-28T03:14:18.761Z,99.90
2018-08-28T03:16:47.172Z,99.90
2018-08-28T03:19:28.314Z,99.90
2018-08-28T03:21:57.127Z,99.90
2018-08-28T03:24:26.668Z,99.90
2018-08-28T03:26:55.271Z,99.90
2018-08-28T03:29:25.127Z,99.90
2018-08-28T03:32:05.456Z,99.90
2018-08-28T03:34:33.832Z,99.90
2018-08-28T03:37:14.998Z,99.90
2018-08-28T03:39:55.769Z,99.90
2018-08-28T03:42:24.565Z,99.90
2018-08-28T03:45:05.379Z,99.90
2018-08-28T03:47:34.784Z,99.90
2018-08-28T03:50:03.004Z,99.90
2018-08-28T03:52:43.245Z,99.90
2018-08-28T03:55:11.480Z,99.90
2018-08-28T03:57:40.512Z,99.90
2018-08-28T04:00:10.251Z,99.90
2018-08-28T04:02:38.497Z,99.90
2018-08-28T04:05:12.203Z,99.90
2018-08-28T04:07:53.260Z,99.90
2018-08-28T04:10:21.542Z,99.90
2018-08-28T04:12:50.028Z,99.90
2018-08-28T04:15:30.912Z,99.90
2018-08-28T04:17:59.307Z,99.90
2018-08-28T04:20:30.232Z,99.90
2018-08-28T04:22:58.468Z,99.90
2018-08-28T04:25:39.506Z,99.90
2018-08-28T04:28:09.380Z,99.90
2018-08-28T04:30:39.189Z,99.90
2018-08-28T04:33:10.661Z,99.90
2018-08-28T04:35:48.351Z,99.90
2018-08-28T04:38:16.595Z,99.90
2018-08-28T04:40:44.942Z,99.90
2018-08-28T04:43:14.635Z,99.90
2018-08-28T04:45:42.874Z,99.90
2018-08-28T04:48:23.088Z,99.90
2018-08-28T04:51:03.833Z,99.90
2018-08-28T04:53:33.583Z,99.90
2018-08-28T04:56:01.839Z,99.90
2018-08-28T04:58:42.264Z,99.90
2018-08-28T05:01:22.928Z,99.90
2018-08-28T05:04:03.989Z,99.90
2018-08-28T05:06:32.197Z,99.90
2018-08-28T05:09:02.336Z,99.90
2018-08-28T05:11:42.700Z,99.90
2018-08-28T05:14:23.658Z,99.90
2018-08-28T05:16:51.830Z,99.90
2018-08-28T05:19:32.129Z,99.90
2018-08-28T05:22:00.381Z,99.90
2018-08-28T05:24:40.904Z,99.90
2018-08-28T05:27:21.973Z,99.90
2018-08-28T05:30:02.412Z,99.90
2018-08-28T05:32:43.237Z,99.90
2018-08-28T05:35:23.860Z,99.90
2018-08-28T05:37:52.151Z,99.90
2018-08-28T05:40:32.466Z,99.90
2018-08-28T05:43:13.857Z,99.90
2018-08-28T05:45:42.111Z,99.90
2018-08-28T05:48:23.101Z,99.90
2018-08-28T05:51:03.878Z,99.90
2018-08-28T05:53:44.830Z,99.90
2018-08-28T05:56:25.430Z,99.90
2018-08-28T05:58:53.812Z,99.90
2018-08-28T06:01:34.373Z,99.90
2018-08-28T06:04:15.258Z,99.90
2018-08-28T06:06:56.379Z,99.90
2018-08-28T06:09:37.563Z,99.90
2018-08-28T06:12:05.893Z,99.90
2018-08-28T06:14:34.254Z,99.90
2018-08-28T06:17:15.435Z,99.90
2018-08-28T06:19:43.636Z,99.90
2018-08-28T06:22:24.319Z,99.90
2018-08-28T06:25:04.985Z,99.90
2018-08-28T06:27:45.807Z,99.90
2018-08-28T06:30:26.610Z,99.90
2018-08-28T06:32:54.845Z,99.90
2018-08-28T06:35:35.725Z,99.90
2018-08-28T06:38:15.995Z,99.90
2018-08-28T06:40:57.066Z,99.90
2018-08-28T06:43:26.584Z,99.90
2018-08-28T06:46:07.654Z,99.90
2018-08-28T06:48:48.917Z,99.90
2018-08-28T06:51:17.212Z,99.90
2018-08-28T06:53:57.974Z,99.90
2018-08-28T06:56:26.287Z,99.90
2018-08-28T06:59:06.861Z,99.90
2018-08-28T07:01:47.613Z,99.90
2018-08-28T07:04:15.833Z,99.90
2018-08-28T07:06:56.306Z,99.90
2018-08-28T07:09:25.516Z,99.90
2018-08-28T07:11:53.717Z,99.90
2018-08-28T07:14:34.761Z,99.90
2018-08-28T07:17:02.943Z,99.90
2018-08-28T07:19:31.192Z,99.90
2018-08-28T07:22:11.451Z,99.90
2018-08-28T07:24:39.713Z,99.90
2018-08-28T07:27:20.091Z,99.90
2018-08-28T07:29:48.264Z,99.90
2018-08-28T07:32:16.442Z,99.90
2018-08-28T07:34:56.620Z,99.90
2018-08-28T07:37:24.962Z,99.90
2018-08-28T07:39:53.186Z,99.90
2018-08-28T07:42:33.877Z,99.90
2018-08-28T07:45:14.553Z,99.90
2018-08-28T07:47:42.784Z,99.90
2018-08-28T07:50:10.979Z,99.90
2018-08-28T07:52:39.153Z,99.90
2018-08-28T07:55:19.863Z,99.90
2018-08-28T07:57:48.037Z,99.90
2018-08-28T08:00:16.238Z,99.90
2018-08-28T08:02:57.360Z,99.90
2018-08-28T08:05:31.104Z,99.90
2018-08-28T08:08:11.872Z,99.90
2018-08-28T08:10:53.129Z,99.90
2018-08-28T08:13:35.569Z,99.90
2018-08-28T08:16:16.425Z,99.90
2018-08-28T08:18:57.197Z,99.90
2018-08-28T08:21:25.436Z,99.90
2018-08-28T08:23:53.662Z,99.90
2018-08-28T08:26:21.861Z,99.90
2018-08-28T08:29:02.424Z,99.90
2018-08-28T08:31:43.336Z,99.90
2018-08-28T08:34:24.066Z,99.90
2018-08-28T08:36:52.368Z,99.90
2018-08-28T08:39:33.468Z,99.90
2018-08-28T08:42:14.249Z,99.90
2018-08-28T08:44:55.069Z,99.90
2018-08-28T08:47:24.968Z,99.90
2018-08-28T08:49:53.180Z,99.90
2018-08-28T08:52:22.030Z,99.90
2018-08-28T08:55:02.440Z,99.90
2018-08-28T08:57:43.075Z,99.90
2018-08-28T09:00:11.281Z,99.90
2018-08-28T09:02:51.600Z,99.80
2018-08-28T09:05:32.254Z,99.00
2018-08-28T09:08:01.390Z,99.00
2018-08-28T09:10:41.545Z,98.90
2018-08-28T09:13:09.817Z,98.40
2018-08-28T09:15:38.255Z,98.40
2018-08-28T09:18:19.129Z,97.60
2018-08-28T09:20:59.976Z,96.40
2018-08-28T09:23:28.687Z,95.50
2018-08-28T09:25:57.065Z,94.70
2018-08-28T09:28:37.553Z,94.40
2018-08-28T09:31:05.882Z,94.80
2018-08-28T09:33:37.713Z,94.40
2018-08-28T09:36:06.188Z,95.00
2018-08-28T09:38:47.036Z,94.70
2018-08-28T09:41:27.874Z,93.30
2018-08-28T09:44:08.706Z,93.10
2018-08-28T09:46:49.197Z,92.10
2018-08-28T09:49:17.388Z,92.30
2018-08-28T09:51:57.753Z,91.40
2018-08-28T09:54:38.595Z,90.10
2018-08-28T09:57:19.366Z,90.30
2018-08-28T10:00:00.172Z,90.60
2018-08-28T10:02:40.841Z,86.90
2018-08-28T10:05:21.533Z,88.10
2018-08-28T10:08:02.627Z,87.20
2018-08-28T10:10:43.133Z,85.80
2018-08-28T10:13:11.367Z,83.30
2018-08-28T10:15:51.972Z,80.30
2018-08-28T10:18:20.200Z,76.60
2018-08-28T10:21:00.458Z,77.20
2018-08-28T10:23:41.123Z,77.00
2018-08-28T10:26:21.732Z,76.30
2018-08-28T10:29:02.638Z,76.80
2018-08-28T10:31:43.192Z,75.00
2018-08-28T10:34:23.932Z,74.60
2018-08-28T10:37:04.762Z,73.00
2018-08-28T10:39:45.500Z,73.30
2018-08-28T10:42:13.691Z,66.90
2018-08-28T10:44:41.886Z,64.40
2018-08-28T10:47:22.662Z,60.90
2018-08-28T10:50:03.470Z,56.80
2018-08-28T10:52:31.672Z,56.00
2018-08-28T10:55:11.913Z,53.70
2018-08-28T10:57:52.608Z,52.10
2018-08-28T11:00:33.331Z,47.40
2018-08-28T11:03:14.105Z,47.40
2018-08-28T11:05:54.956Z,45.30
2018-08-28T11:08:35.706Z,42.40
2018-08-28T11:11:16.428Z,43.00
2018-08-28T11:13:57.328Z,43.00
2018-08-28T11:16:37.990Z,41.20
2018-08-28T11:19:06.181Z,43.00
2018-08-28T11:21:34.358Z,44.80
2018-08-28T11:24:15.386Z,46.20
2018-08-28T11:26:56.099Z,46.60
2018-08-28T11:29:37.023Z,42.90
2018-08-28T11:32:17.703Z,41.60
2018-08-28T11:34:58.480Z,43.60
2018-08-28T11:37:39.194Z,46.50
2018-08-28T11:40:19.903Z,48.70
2018-08-28T11:43:00.504Z,48.90
2018-08-28T11:45:41.241Z,50.90
2018-08-28T11:48:21.785Z,50.90
2018-08-28T11:50:50.012Z,47.80
2018-08-28T11:53:18.186Z,44.50
2018-08-28T11:55:58.878Z,42.70
2018-08-28T11:58:39.515Z,41.10
2018-08-28T12:01:20.087Z,41.10
2018-08-28T12:04:00.909Z,41.20
2018-08-28T12:06:41.564Z,42.30
2018-08-28T12:09:22.261Z,43.40
2018-08-28T12:12:03.191Z,42.70
2018-08-28T12:14:31.443Z,41.70
2018-08-28T12:17:11.731Z,40.80
2018-08-28T12:19:52.524Z,40.30
2018-08-28T12:22:33.206Z,42.00
2018-08-28T12:25:01.451Z,43.70
2018-08-28T12:27:29.713Z,45.40
2018-08-28T12:30:11.587Z,45.70
2018-08-28T12:32:52.231Z,46.60
2018-08-28T12:35:32.801Z,47.90
2018-08-28T12:38:13.445Z,48.40
2018-08-28T12:40:41.758Z,49.50
2018-08-28T12:43:22.051Z,50.50
2018-08-28T12:45:54.328Z,51.30
2018-08-28T12:48:34.795Z,51.50
2018-08-28T12:51:15.562Z,52.00
2018-08-28T12:59:42.535Z,52.10
2018-08-28T13:05:23.972Z,52.40
2018-08-28T13:08:04.530Z,52.00
2018-08-28T13:16:19.521Z,50.90
2018-08-28T13:18:47.740Z,51.20
2018-08-28T13:21:28.026Z,51.00
2018-08-28T13:23:57.218Z,48.60
2018-08-28T13:26:25.486Z,48.20
2018-08-28T13:28:56.857Z,48.00
2018-08-28T13:31:25.095Z,48.30
2018-08-28T13:34:05.776Z,49.40
2018-08-28T13:36:34.101Z,50.80
2018-08-28T13:39:02.728Z,51.60
2018-08-28T13:41:30.946Z,52.40
2018-08-28T13:43:59.159Z,52.70
2018-08-28T13:46:39.495Z,52.50
2018-08-28T13:49:20.154Z,51.70
2018-08-28T13:52:00.892Z,51.80
2018-08-28T13:54:41.555Z,52.40
2018-08-28T13:57:22.354Z,52.50
2018-08-28T13:59:50.553Z,51.30
2018-08-28T14:02:30.818Z,50.80
2018-08-28T14:05:11.462Z,50.70
2018-08-28T14:07:52.219Z,51.40
2018-08-28T14:10:33.908Z,51.10
2018-08-28T14:13:02.258Z,50.10
2018-08-28T14:15:43.131Z,50.60
2018-08-28T14:18:23.582Z,51.10
2018-08-28T14:21:04.245Z,50.90
2018-08-28T14:23:45.034Z,51.70
2018-08-28T14:26:17.638Z,50.40
2018-08-28T14:28:45.918Z,50.50
2018-08-28T14:31:19.081Z,50.90
2018-08-28T14:33:59.573Z,50.60
2018-08-28T14:36:40.070Z,51.00
2018-08-28T14:39:11.393Z,51.80
2018-08-28T14:41:51.668Z,52.10
2018-08-28T14:44:32.585Z,51.30
2018-08-28T14:47:06.326Z,51.50
2018-08-28T14:49:47.047Z,51.80
2018-08-28T14:52:15.750Z,52.20
2018-08-28T14:54:43.995Z,51.30
2018-08-28T14:57:19.407Z,48.80
2018-08-28T14:59:48.962Z,48.90
2018-08-28T15:02:17.212Z,49.80
2018-08-28T15:04:57.840Z,49.80
2018-08-28T15:07:26.116Z,49.80
2018-08-28T15:09:54.367Z,49.60
2018-08-28T15:12:29.030Z,49.00
2018-08-28T15:15:09.819Z,50.10
2018-08-28T15:17:50.519Z,50.40
2018-08-28T15:20:31.292Z,50.60
2018-08-28T15:23:12.144Z,49.70
2018-08-28T15:25:52.870Z,49.50
2018-08-28T15:28:33.628Z,50.00
2018-08-28T15:31:14.414Z,50.10
2018-08-28T15:33:54.997Z,49.80
2018-08-28T15:36:23.225Z,49.90
2018-08-28T15:38:51.580Z,49.60
2018-08-28T15:41:32.434Z,49.60
2018-08-28T15:44:13.163Z,50.20
2018-08-28T15:46:54.085Z,50.70
2018-08-28T15:49:34.831Z,51.00
2018-08-28T15:52:15.517Z,51.60
2018-08-28T15:54:45.250Z,51.70
2018-08-28T15:57:13.511Z,52.30
2018-08-28T15:59:43.473Z,52.40
2018-08-28T16:02:23.857Z,52.80
2018-08-28T16:04:58.589Z,52.60
2018-08-28T16:07:26.836Z,52.10
2018-08-28T16:09:55.156Z,52.00
2018-08-28T16:12:35.737Z,51.90
2018-08-28T16:15:03.965Z,53.00
2018-08-28T16:17:33.638Z,52.70
2018-08-28T16:20:01.190Z,52.80
2018-08-28T16:22:49.196Z,53.30
2018-08-28T16:25:16.880Z,52.70
2018-08-28T16:27:50.268Z,52.90
2018-08-28T16:30:19.697Z,53.30
2018-08-28T16:32:48.180Z,53.50
2018-08-28T16:35:22.049Z,53.90
2018-08-28T16:37:50.183Z,53.80
2018-08-28T16:40:23.363Z,54.20
2018-08-28T16:42:51.433Z,54.90
2018-08-28T16:45:19.017Z,55.20
2018-08-28T16:47:46.544Z,55.70
2018-08-28T16:50:14.156Z,56.00
2018-08-28T16:52:47.946Z,56.20
2018-08-28T16:55:21.311Z,56.50
2018-08-28T16:57:54.976Z,57.10
2018-08-28T17:00:23.012Z,57.30
2018-08-28T17:02:56.076Z,57.20
2018-08-28T17:05:28.446Z,57.20
2018-08-28T17:07:55.996Z,57.30
2018-08-28T17:10:29.718Z,57.40
2018-08-28T17:12:57.275Z,57.50
2018-08-28T17:15:25.739Z,57.80
2018-08-28T17:17:58.911Z,57.90
2018-08-28T17:20:32.664Z,58.00
2018-08-28T17:23:06.012Z,58.30
2018-08-28T17:25:33.640Z,58.60
2018-08-28T17:28:07.357Z,58.70
2018-08-28T17:30:35.190Z,58.80
2018-08-28T17:33:08.559Z,59.00
2018-08-28T17:35:42.069Z,59.40
2018-08-28T17:38:10.199Z,59.20
2018-08-28T17:40:37.982Z,59.30
2018-08-28T17:43:11.931Z,59.30
2018-08-28T17:45:46.501Z,59.60
2018-08-28T17:48:14.829Z,59.80
2018-08-28T17:50:47.961Z,60.00
2018-08-28T17:53:21.292Z,59.90
2018-08-28T17:55:54.687Z,60.00
2018-08-28T17:58:22.296Z,60.20
2018-08-28T18:00:56.670Z,60.40
2018-08-28T18:03:30.614Z,60.50
2018-08-28T18:05:58.207Z,60.90
2018-08-28T18:08:33.343Z,61.00
2018-08-28T18:11:06.449Z,61.50
2018-08-28T18:13:34.098Z,61.60
2018-08-28T18:16:07.682Z,61.80
2018-08-28T18:18:41.067Z,62.00
2018-08-28T18:21:14.759Z,62.40
2018-08-28T18:23:42.289Z,62.80
2018-08-28T18:26:16.051Z,63.00
2018-08-28T18:28:49.604Z,63.20
2018-08-28T18:31:23.237Z,63.50
2018-08-28T18:33:56.905Z,63.90
2018-08-28T18:36:24.536Z,64.00
2018-08-28T18:38:57.853Z,64.30
2018-08-28T18:41:25.445Z,64.40
2018-08-28T18:43:59.164Z,64.90
2018-08-28T18:46:27.244Z,65.10
2018-08-28T18:49:00.458Z,65.50
2018-08-28T18:51:34.109Z,65.80
2018-08-28T18:54:01.734Z,66.10
2018-08-28T18:56:29.460Z,66.40
2018-08-28T18:59:03.327Z,66.70
2018-08-28T19:01:36.850Z,67.30
2018-08-28T19:04:10.389Z,67.70
2018-08-28T19:06:38.511Z,68.80
2018-08-28T19:09:11.689Z,68.30
2018-08-28T19:11:39.154Z,68.70
2018-08-28T19:14:06.763Z,69.40
2018-08-28T19:16:40.381Z,69.40
2018-08-28T19:19:13.972Z,69.90
2018-08-28T19:21:49.612Z,70.10
2018-08-28T19:24:23.069Z,70.40
2018-08-28T19:26:50.743Z,71.00
2018-08-28T19:29:25.320Z,71.30
2018-08-28T19:31:53.055Z,71.70
2018-08-28T19:34:20.576Z,72.20
2018-08-28T19:36:48.215Z,72.50
2018-08-28T19:39:21.955Z,73.00
2018-08-28T19:41:55.568Z,73.50
2018-08-28T19:44:29.214Z,73.80
2018-08-28T19:46:56.774Z,74.50
2018-08-28T19:49:30.354Z,74.50
2018-08-28T19:52:03.894Z,74.80
2018-08-28T19:54:31.588Z,75.30
2018-08-28T19:57:05.550Z,75.80
2018-08-28T19:59:33.217Z,76.20
2018-08-28T20:02:06.564Z,76.60
2018-08-28T20:04:40.245Z,77.00
2018-08-28T20:07:13.922Z,77.60
2018-08-28T20:09:41.897Z,77.90
2018-08-28T20:12:15.088Z,78.30
2018-08-28T20:14:42.709Z,78.40
2018-08-28T20:17:16.179Z,78.90
2018-08-28T20:19:43.761Z,79.40
2018-08-28T20:22:17.239Z,79.40
2018-08-28T20:24:51.081Z,79.60
2018-08-28T20:27:24.689Z,80.30
2018-08-28T20:29:58.076Z,80.60
2018-08-28T20:32:25.981Z,81.10
2018-08-28T20:34:59.359Z,81.50
2018-08-28T20:37:27.043Z,82.20
2018-08-28T20:40:00.319Z,82.40
2018-08-28T20:42:34.138Z,83.10
2018-08-28T20:45:07.479Z,83.80
2018-08-28T20:47:40.985Z,84.10
2018-08-28T20:50:08.599Z,84.90
2018-08-28T20:52:36.506Z,85.50
2018-08-28T20:55:09.714Z,85.90
2018-08-28T20:57:37.313Z,86.40
2018-08-28T21:00:05.935Z,86.90
2018-08-28T21:02:34.230Z,87.40
2018-08-28T21:05:05.897Z,87.80
2018-08-28T21:07:33.524Z,88.20
2018-08-28T21:10:06.766Z,88.40
2018-08-28T21:12:34.825Z,88.80
2018-08-28T21:15:02.864Z,89.30
2018-08-28T21:17:30.849Z,89.50
2018-08-28T21:20:03.901Z,90.10
2018-08-28T21:22:37.395Z,90.30
2018-08-28T21:25:05.592Z,90.50
2018-08-28T21:27:33.181Z,90.60
2018-08-28T21:30:06.329Z,90.90
2018-08-28T21:32:34.270Z,91.30
2018-08-28T21:35:07.507Z,91.30
2018-08-28T21:37:38.555Z,91.60
2018-08-28T21:40:06.727Z,91.70
2018-08-28T21:42:34.294Z,92.30
2018-08-28T21:45:01.849Z,92.10
2018-08-28T21:47:35.780Z,92.20
2018-08-28T21:50:09.382Z,92.50
2018-08-28T21:52:43.317Z,92.70
2018-08-28T21:55:10.865Z,92.90
2018-08-28T21:57:38.523Z,93.00
2018-08-28T22:00:07.186Z,93.30
2018-08-28T22:02:40.726Z,93.40
2018-08-28T22:05:14.307Z,93.40
2018-08-28T22:07:45.516Z,93.70
2018-08-28T22:10:14.093Z,93.90
2018-08-28T22:12:47.376Z,94.10
2018-08-28T22:15:15.001Z,94.30
2018-08-28T22:17:43.147Z,94.60
2018-08-28T22:20:16.362Z,94.70
2018-08-28T22:22:44.072Z,94.70
2018-08-28T22:25:17.665Z,94.90
2018-08-28T22:27:51.281Z,95.00
2018-08-28T22:30:25.080Z,95.20
2018-08-28T22:32:58.375Z,95.20
2018-08-28T22:35:32.078Z,95.50
2018-08-28T22:38:00.095Z,95.90
2018-08-28T22:40:28.260Z,95.90
2018-08-28T22:42:55.820Z,96.20
2018-08-28T22:45:23.380Z,96.20
2018-08-28T22:47:57.201Z,96.40
2018-08-28T22:50:30.756Z,96.50
2018-08-28T22:53:04.324Z,96.70
2018-08-28T22:55:32.078Z,96.70
2018-08-28T22:58:02.957Z,96.80
2018-08-28T23:00:31.721Z,97.10
2018-08-28T23:03:04.847Z,97.30
2018-08-28T23:05:32.917Z,97.30
2018-08-28T23:08:00.469Z,97.60
2018-08-28T23:10:28.001Z,98.00
2018-08-28T23:13:01.211Z,98.00
2018-08-28T23:15:28.740Z,98.30
2018-08-28T23:18:02.385Z,98.40
2018-08-28T23:20:30.561Z,98.60
2018-08-28T23:22:58.046Z,98.80
2018-08-28T23:25:25.805Z,99.00
2018-08-28T23:27:58.975Z,99.10
2018-08-28T23:30:26.551Z,99.20
2018-08-28T23:33:00.412Z,99.50
2018-08-28T23:35:27.956Z,99.60
2018-08-28T23:37:56.292Z,99.80
2018-08-28T23:40:23.823Z,99.70
2018-08-28T23:42:56.998Z,99.90
2018-08-28T23:45:24.540Z,99.90
2018-08-28T23:47:58.015Z,99.90
2018-08-28T23:50:31.611Z,99.90
2018-08-28T23:52:59.163Z,99.90
2018-08-28T23:55:26.735Z,99.90
2018-08-28T23:57:54.296Z,99.90
